Time;durP1;ratioP1;P1;durP2;ratioP2;P2;SDS_P1;SDS_P2;PMS_P1;PMS_P2;Temp;Humidity;BMP_temperature;BMP_pressure;BME280_temperature;BME280_humidity;BME280_pressure;Samples;Min_cycle;Max_cycle;Signal;HPM_P1;HPM_P2
2021/06/04 00:01:15;;;;;;;;;8.00;8.00;;;;;26.07;48.56;101447.91;5061952;28;45326;-64
2021/06/04 00:03:42;;;;;;;;;9.67;8.00;;;;;26.06;48.40;101448.88;5063465;28;45218;-64
2021/06/04 00:06:08;;;;;;;;;10.33;8.00;;;;;26.06;48.29;101446.19;5065133;28;46885;-63
2021/06/04 00:08:34;;;;;;;;;10.00;9.00;;;;;26.06;48.54;101451.53;5064782;28;45350;-64
2021/06/04 00:11:31;;;;;;;;;9.67;9.00;;;;;26.06;48.64;101441.75;5065172;28;45330;-64
2021/06/04 00:14:00;;;;;;;;;10.00;9.00;;;;;26.06;48.60;101448.88;5064563;28;45897;-63
2021/06/04 00:16:30;;;;;;;;;10.67;8.67;;;;;26.05;48.55;101461.31;5063519;28;48357;-64
2021/06/04 00:18:56;;;;;;;;;9.33;8.00;;;;;26.06;48.37;101464.81;5064943;28;45472;-63
2021/06/04 00:21:28;;;;;;;;;12.33;12.00;;;;;26.06;48.14;101464.81;5065150;28;45343;-64
2021/06/04 00:23:57;;;;;;;;;9.33;9.00;;;;;26.05;48.20;101471.06;5064084;28;45378;-63
2021/06/04 00:26:23;;;;;;;;;8.00;8.00;;;;;26.05;48.39;101487.91;5064282;28;46384;-63
2021/06/04 00:28:48;;;;;;;;;8.33;8.33;;;;;26.05;48.57;101495.00;5064689;28;45309;-63
2021/06/04 00:31:14;;;;;;;;;9.67;9.67;;;;;26.05;48.29;101490.56;5064799;28;45382;-64
2021/06/04 00:33:42;;;;;;;;;6.67;6.00;;;;;26.06;48.41;101486.97;5064870;28;45369;-62
2021/06/04 00:36:08;;;;;;;;;10.00;10.00;;;;;26.05;48.33;101492.34;5063706;28;47362;-63
2021/06/04 00:38:34;;;;;;;;;10.33;10.33;;;;;26.04;48.66;101483.53;5062234;28;45402;-62
2021/06/04 00:41:05;;;;;;;;;8.00;8.00;;;;;26.05;48.68;101484.38;5064584;28;45602;-62
2021/06/04 00:43:30;;;;;;;;;10.67;10.67;;;;;26.04;48.13;101483.53;5064749;28;45711;-63
2021/06/04 00:45:57;;;;;;;;;8.33;8.33;;;;;26.04;48.15;101483.53;5064293;28;46235;-63
2021/06/04 00:48:24;;;;;;;;;10.00;9.33;;;;;26.05;48.71;101487.91;5064400;28;45454;-63
2021/06/04 00:51:34;;;;;;;;;8.33;8.33;;;;;26.04;48.45;101488.84;5064361;28;45343;-63
2021/06/04 00:54:02;;;;;;;;;11.00;11.00;;;;;26.03;48.06;101493.28;5052396;28;46237;-63
2021/06/04 00:56:29;;;;;;;;;10.33;9.33;;;;;26.03;48.37;101500.44;5062835;28;45396;-63
2021/06/04 00:58:57;;;;;;;;;7.67;7.67;;;;;26.04;48.32;101499.50;5064248;28;45422;-64
2021/06/04 01:01:25;;;;;;;;;10.33;8.67;;;;;26.04;47.99;101502.16;5063053;28;45415;-63
2021/06/04 01:04:00;;;;;;;;;9.00;9.00;;;;;26.03;48.33;101509.25;5064511;28;45163;-63
2021/06/04 01:06:39;;;;;;;;;11.33;9.00;;;;;26.03;48.28;101535.00;5063998;28;45304;-63
2021/06/04 01:09:16;;;;;;;;;9.00;7.00;;;;;26.04;48.15;101550.03;5062821;28;45417;-63
2021/06/04 01:11:57;;;;;;;;;9.67;9.00;;;;;26.05;48.17;101541.09;5062685;28;45524;-63
2021/06/04 01:14:27;;;;;;;;;9.33;9.33;;;;;26.05;48.22;101529.59;5064112;28;45432;-63
2021/06/04 01:16:59;;;;;;;;;11.67;11.00;;;;;26.05;48.04;101524.28;5062120;28;48586;-64
2021/06/04 01:19:38;;;;;;;;;13.00;10.00;;;;;26.04;48.21;101526.09;5062652;28;45373;-63
2021/06/04 01:22:07;;;;;;;;;8.00;8.00;;;;;26.03;48.21;101527.88;5062793;28;45342;-63
2021/06/04 01:25:09;;;;;;;;;11.67;10.33;;;;;26.04;48.23;101528.75;5063032;28;45513;-63
2021/06/04 01:27:38;;;;;;;;;10.33;9.67;;;;;26.04;48.16;101526.09;5062058;28;45274;-63
2021/06/04 01:30:27;;;;;;;;;9.67;9.67;;;;;26.03;48.15;101519.88;5062319;28;45366;-63
2021/06/04 01:32:57;;;;;;;;;11.33;8.33;;;;;26.03;48.48;101514.56;5063421;28;45310;-63
2021/06/04 01:35:27;;;;;;;;;11.67;10.67;;;;;26.03;47.86;101511.06;5062820;28;45516;-64
2021/06/04 01:37:54;;;;;;;;;10.00;10.00;;;;;26.03;48.08;101509.25;5061931;28;46860;-63
2021/06/04 01:40:39;;;;;;;;;12.33;11.33;;;;;26.03;48.25;101524.38;5056118;28;45315;-64
2021/06/04 01:43:09;;;;;;;;;9.33;9.33;;;;;26.03;48.18;101519.03;5074057;28;45295;-64
2021/06/04 01:45:39;;;;;;;;;12.33;11.67;;;;;26.02;48.36;101515.50;5079468;28;45414;-64
2021/06/04 01:48:11;;;;;;;;;10.00;10.00;;;;;26.02;48.08;101507.53;5061859;28;46951;-64
2021/06/04 01:51:01;;;;;;;;;11.00;11.00;;;;;26.01;48.22;101495.22;5063419;28;45460;-65
2021/06/04 01:53:30;;;;;;;;;11.67;10.67;;;;;26.02;47.84;101493.41;5063637;28;45282;-64
2021/06/04 01:56:06;;;;;;;;;11.00;11.00;;;;;26.01;48.08;101495.22;5063569;28;45460;-64
2021/06/04 01:58:41;;;;;;;;;11.00;11.00;;;;;26.01;48.09;101484.56;5062090;28;45442;-64
2021/06/04 02:01:30;;;;;;;;;11.00;10.00;;;;;26.02;48.18;101472.13;5063160;28;45378;-65
2021/06/04 02:03:56;;;;;;;;;12.67;12.67;;;;;26.01;48.02;101481.91;5062095;28;45258;-64
2021/06/04 02:06:21;;;;;;;;;11.00;10.33;;;;;26.00;47.98;101482.84;5062772;28;50612;-65
2021/06/04 02:08:51;;;;;;;;;12.33;11.33;;;;;26.01;48.11;101491.66;5078775;28;45974;-64
2021/06/04 02:11:20;;;;;;;;;13.33;12.00;;;;;26.00;48.13;101474.88;5063004;28;45372;-65
2021/06/04 02:13:48;;;;;;;;;12.33;10.67;;;;;26.00;47.98;101468.69;5063180;28;45477;-64
2021/06/04 02:16:33;;;;;;;;;11.00;11.00;;;;;25.99;48.09;101467.84;5063267;28;45347;-64
2021/06/04 02:19:11;;;;;;;;;12.67;12.00;;;;;25.99;48.15;101466.97;5061553;28;47101;-64
2021/06/04 02:21:41;;;;;;;;;9.33;9.33;;;;;25.99;48.51;101472.28;5062968;28;45301;-64
2021/06/04 02:24:14;;;;;;;;;13.00;11.00;;;;;25.99;48.10;101485.56;5061571;28;45454;-65
2021/06/04 02:26:42;;;;;;;;;12.00;12.00;;;;;25.98;48.14;101468.78;5061613;28;45434;-64
2021/06/04 02:29:24;;;;;;;;;10.67;10.67;;;;;25.99;48.35;101490.91;5062532;28;46238;-64
2021/06/04 02:32:02;;;;;;;;;12.33;12.33;;;;;25.98;47.91;101497.16;5062521;28;45239;-64
2021/06/04 02:34:28;;;;;;;;;12.33;11.33;;;;;25.99;48.14;101512.16;5062578;28;45367;-64
2021/06/04 02:36:57;;;;;;;;;12.67;12.67;;;;;25.98;48.05;101519.31;5055067;28;45481;-64
2021/06/04 02:39:29;;;;;;;;;11.67;11.67;;;;;25.98;48.14;101535.25;5054673;28;46366;-64
2021/06/04 02:42:00;;;;;;;;;12.00;11.00;;;;;25.98;48.25;101548.56;5040885;28;45344;-64
2021/06/04 02:44:35;;;;;;;;;13.67;12.67;;;;;25.98;48.13;101553.88;5058250;28;45330;-64
2021/06/04 02:47:05;;;;;;;;;13.67;12.00;;;;;25.98;48.08;101551.22;5061467;28;45493;-64
2021/06/04 02:49:33;;;;;;;;;12.67;10.67;;;;;25.98;47.98;101545.03;5061154;28;45386;-64
2021/06/04 02:52:09;;;;;;;;;10.00;10.00;;;;;25.98;48.05;101542.38;5062497;28;45255;-66
2021/06/04 02:54:39;;;;;;;;;11.33;11.33;;;;;25.98;48.32;101553.00;5062487;28;45262;-64
2021/06/04 02:57:11;;;;;;;;;13.67;13.67;;;;;25.98;48.09;101584.91;5061270;28;45536;-65
2021/06/04 02:59:41;;;;;;;;;12.00;11.00;;;;;25.98;48.19;101615.03;5061053;28;45561;-64
2021/06/04 03:02:13;;;;;;;;;15.00;12.00;;;;;25.98;48.30;101636.31;5062167;28;45276;-65
2021/06/04 03:04:42;;;;;;;;;13.00;10.67;;;;;25.97;48.31;101608.00;5062533;28;45365;-64
2021/06/04 03:07:13;;;;;;;;;11.67;11.67;;;;;25.98;48.10;101580.47;5062406;28;45493;-63
2021/06/04 03:09:42;;;;;;;;;15.00;12.00;;;;;25.98;47.81;101526.41;5062236;28;46405;-63
2021/06/04 03:12:12;;;;;;;;;13.33;13.33;;;;;25.97;48.26;101479.47;5061785;28;45528;-64
2021/06/04 03:14:37;;;;;;;;;13.67;13.00;;;;;25.96;47.85;101473.31;5062290;28;45482;-63
2021/06/04 03:17:05;;;;;;;;;12.00;12.00;;;;;25.96;47.94;101460.03;5062035;28;45471;-64
2021/06/04 03:19:30;;;;;;;;;13.67;11.67;;;;;25.95;48.05;101455.66;5061993;28;45309;-63
2021/06/04 03:21:59;;;;;;;;;13.00;11.67;;;;;25.95;47.88;101439.69;5077337;28;52177;-64
2021/06/04 03:24:31;;;;;;;;;11.33;11.33;;;;;25.94;48.47;101427.34;5062266;28;45370;-63
2021/06/04 03:26:57;;;;;;;;;10.33;10.33;;;;;25.94;48.17;101427.34;5060519;28;45366;-63
2021/06/04 03:29:23;;;;;;;;;11.00;11.00;;;;;25.94;48.11;101429.16;5061757;28;45393;-63
2021/06/04 03:31:53;;;;;;;;;12.33;12.33;;;;;25.93;48.28;101430.09;5061785;28;45278;-63
2021/06/04 03:34:19;;;;;;;;;10.67;9.67;;;;;25.93;48.24;101430.09;5060943;28;45339;-63
2021/06/04 03:36:47;;;;;;;;;14.00;14.00;;;;;25.92;48.02;101426.56;5055626;28;45393;-63
2021/06/04 03:39:17;;;;;;;;;14.67;11.33;;;;;25.92;48.15;101423.91;5054914;28;45362;-63
2021/06/04 03:41:45;;;;;;;;;11.00;11.00;;;;;25.92;48.17;101423.91;5052741;28;45411;-63
2021/06/04 03:44:12;;;;;;;;;9.00;9.00;;;;;25.91;48.12;101413.38;5061993;28;45299;-62
2021/06/04 03:46:38;;;;;;;;;12.67;11.00;;;;;25.91;47.97;101413.38;5061891;28;45231;-63
2021/06/04 03:49:05;;;;;;;;;14.67;12.00;;;;;25.90;48.05;101398.34;5061100;28;60936;-62
2021/06/04 03:51:34;;;;;;;;;12.00;11.67;;;;;25.89;48.09;101405.47;5061576;28;45228;-62
2021/06/04 03:54:01;;;;;;;;;16.00;13.00;;;;;25.89;48.00;101407.28;5061936;28;45338;-62
2021/06/04 03:56:27;;;;;;;;;13.33;12.00;;;;;25.88;48.24;101403.75;5061546;28;45534;-65
2021/06/04 03:58:54;;;;;;;;;11.67;11.67;;;;;25.88;48.41;101385.13;5060014;28;46203;-63
2021/06/04 04:01:42;;;;;;;;;14.67;14.33;;;;;25.87;47.98;101381.63;5048722;28;45177;-62
2021/06/04 04:04:07;;;;;;;;;13.33;13.33;;;;;25.87;48.15;101380.75;5060235;28;45260;-63
2021/06/04 04:06:34;;;;;;;;;13.67;13.67;;;;;25.86;48.13;101373.75;5061116;28;57162;-63
2021/06/04 04:08:59;;;;;;;;;14.00;14.00;;;;;25.86;48.21;101377.25;5061096;28;61645;-63
2021/06/04 04:11:25;;;;;;;;;14.67;14.67;;;;;25.85;47.96;101391.50;5061343;28;45286;-62
2021/06/04 04:13:51;;;;;;;;;14.00;13.33;;;;;25.85;48.15;101386.16;5077350;28;45414;-63
2021/06/04 04:16:16;;;;;;;;;13.33;11.33;;;;;25.85;48.00;101394.16;5061636;28;45314;-63
2021/06/04 04:18:42;;;;;;;;;16.67;15.00;;;;;25.84;48.26;101400.41;5061333;28;45395;-63
2021/06/04 04:21:11;;;;;;;;;11.33;11.33;;;;;25.85;47.99;101385.34;5061332;28;45375;-63
2021/06/04 04:23:42;;;;;;;;;12.67;11.33;;;;;25.84;48.00;101383.63;5061428;28;45369;-63
2021/06/04 04:26:12;;;;;;;;;12.33;12.00;;;;;25.85;48.14;101391.50;5061320;28;45243;-63
2021/06/04 04:28:39;;;;;;;;;14.33;13.33;;;;;25.84;47.99;101387.13;5059774;28;45436;-63
2021/06/04 04:31:08;;;;;;;;;16.67;14.00;;;;;25.84;48.25;101392.44;5061195;28;45509;-63
2021/06/04 04:33:33;;;;;;;;;15.33;12.33;;;;;25.84;47.98;101394.25;5076676;28;45198;-63
2021/06/04 04:35:59;;;;;;;;;13.67;13.67;;;;;25.84;48.11;101395.09;5059098;28;46982;-64
2021/06/04 04:38:24;;;;;;;;;15.33;14.00;;;;;25.84;47.99;101391.59;5060798;28;46028;-65
2021/06/04 04:40:58;;;;;;;;;14.67;13.00;;;;;25.84;48.00;101386.28;5045936;28;50495;-64
2021/06/04 04:43:25;;;;;;;;;17.00;13.67;;;;;25.83;48.22;101382.75;5075788;28;45502;-64
2021/06/04 04:45:50;;;;;;;;;13.00;13.00;;;;;25.83;48.08;101381.91;5061224;28;45238;-66
2021/06/04 04:48:16;;;;;;;;;12.33;12.00;;;;;25.83;48.32;101382.75;5060539;28;46870;-64
2021/06/04 04:50:41;;;;;;;;;14.00;13.33;;;;;25.83;48.11;101377.41;5061840;28;64852;-62
2021/06/04 04:53:07;;;;;;;;;12.33;11.33;;;;;25.83;48.05;101371.25;5064476;28;45588;-63
2021/06/04 04:55:35;;;;;;;;;14.33;14.33;;;;;25.83;48.03;101364.13;5064784;28;45341;-64
2021/06/04 04:58:01;;;;;;;;;17.67;15.00;;;;;25.83;48.41;101358.81;5064031;28;45422;-63
2021/06/04 05:00:28;;;;;;;;;16.00;15.00;;;;;25.83;48.06;101366.78;5064290;28;45442;-64
2021/06/04 05:02:54;;;;;;;;;13.67;12.33;;;;;25.84;47.78;101365.00;5061911;28;45305;-66
2021/06/04 05:05:23;;;;;;;;;13.00;13.00;;;;;25.85;48.31;101367.56;5064329;28;45446;-61
2021/06/04 05:07:49;;;;;;;;;14.00;13.00;;;;;25.83;48.01;101361.47;5063844;28;46981;-67
2021/06/04 05:10:15;;;;;;;;;14.00;12.67;;;;;25.85;48.36;101356.09;5062959;28;45480;-67
2021/06/04 05:12:40;;;;;;;;;17.00;16.00;;;;;25.84;47.98;101352.56;5057116;28;45593;-67
2021/06/04 05:15:13;;;;;;;;;11.67;11.00;;;;;25.85;47.92;101364.06;5054817;28;45837;-67
2021/06/04 05:17:38;;;;;;;;;12.67;11.00;;;;;25.85;48.06;101395.97;5068909;28;46378;-68
2021/06/04 05:20:04;;;;;;;;;13.33;12.67;;;;;25.84;48.20;101469.53;5069468;28;45335;-67
2021/06/04 05:22:30;;;;;;;;;18.00;13.67;;;;;25.86;48.22;101506.69;5060759;28;45345;-67
2021/06/04 05:24:56;;;;;;;;;13.00;12.67;;;;;25.86;47.94;101504.03;5071534;27;45536;-67
2021/06/04 05:27:21;;;;;;;;;17.67;15.33;;;;;25.86;48.25;101517.31;5058083;28;45487;-67
2021/06/04 05:29:46;;;;;;;;;15.00;14.00;;;;;25.85;48.69;101531.56;5050092;28;45472;-67
2021/06/04 05:32:12;;;;;;;;;18.00;15.67;;;;;25.84;48.65;101554.59;5051532;28;45229;-67
2021/06/04 05:34:38;;;;;;;;;16.00;15.33;;;;;25.84;48.93;101564.41;5051514;28;45561;-67
2021/06/04 05:37:04;;;;;;;;;13.00;12.33;;;;;25.85;48.65;101577.59;5046394;28;45647;-67
2021/06/04 05:39:30;;;;;;;;;17.00;16.00;;;;;25.85;48.82;101577.59;5056643;28;45423;-67
2021/06/04 05:42:03;;;;;;;;;15.67;14.33;;;;;25.85;48.70;101598.88;5043623;28;45440;-65
2021/06/04 05:44:30;;;;;;;;;18.33;16.67;;;;;25.85;48.88;101600.69;5048453;28;45429;-67
2021/06/04 05:46:59;;;;;;;;;14.67;14.00;;;;;25.84;48.72;101586.50;5051259;28;46220;-67
2021/06/04 05:49:25;;;;;;;;;15.00;14.67;;;;;25.83;48.87;101598.09;5049744;28;45872;-65
2021/06/04 05:51:52;;;;;;;;;11.33;10.33;;;;;25.80;48.98;101582.28;5060662;28;45536;-65
2021/06/04 05:54:19;;;;;;;;;7.67;7.67;;;;;25.75;49.21;101565.75;5050419;28;45631;-65
2021/06/04 05:56:45;;;;;;;;;7.67;7.67;;;;;25.70;49.40;101541.19;5049203;28;46222;-66
2021/06/04 05:59:12;;;;;;;;;9.33;9.33;;;;;25.63;49.45;101527.38;5069384;28;45521;-65
2021/06/04 06:01:38;;;;;;;;;8.00;8.00;;;;;25.58;49.44;101525.91;5062084;28;45517;-65
2021/06/04 06:04:04;;;;;;;;;8.00;8.00;;;;;25.52;49.55;101519.97;5052778;28;45296;-66
2021/06/04 06:06:29;;;;;;;;;9.67;9.00;;;;;25.46;50.01;101517.66;5056623;28;47006;-65
2021/06/04 06:08:55;;;;;;;;;436.00;342.75;;;;;25.41;49.80;101527.63;5062019;28;45418;-65
2021/06/04 06:11:25;;;;;;;;;456.00;367.60;;;;;25.36;50.05;101524.34;5051325;28;45413;-64
2021/06/04 06:13:52;;;;;;;;;235.25;185.75;;;;;25.30;49.91;101520.19;5060661;28;45413;-65
2021/06/04 06:16:17;;;;;;;;;61.00;48.50;;;;;25.24;49.98;101510.75;5078586;28;45283;-67
2021/06/04 06:18:43;;;;;;;;;30.33;23.67;;;;;25.19;50.41;101511.94;5059167;28;45512;-66
2021/06/04 06:21:09;;;;;;;;;19.00;13.00;;;;;25.16;50.28;101528.91;5052317;28;45405;-66
2021/06/04 06:23:36;;;;;;;;;9.00;9.00;;;;;25.12;50.35;101535.28;5049353;28;45271;-66
2021/06/04 06:26:15;;;;;;;;;170.00;134.67;;;;;25.07;50.69;101527.56;5055031;28;46190;-66
2021/06/04 06:28:42;;;;;;;;;225.75;179.75;;;;;25.03;50.54;101525.16;5042598;28;45293;-66
2021/06/04 06:31:16;;;;;;;;;56.25;41.00;;;;;25.00;50.41;101512.88;5042855;28;45296;-66
2021/06/04 06:33:42;;;;;;;;;19.33;13.00;;;;;24.97;50.72;101502.41;5042927;28;45263;-66
2021/06/04 06:36:11;;;;;;;;;395.50;318.75;;;;;24.93;50.59;101482.28;5043398;28;45544;-67
2021/06/04 06:38:36;;;;;;;;;48.75;36.00;;;;;24.89;50.50;101481.53;5062204;28;45347;-66
2021/06/04 06:41:05;;;;;;;;;382.75;305.00;;;;;24.87;50.74;101483.44;5047443;28;45254;-65
2021/06/04 06:43:34;;;;;;;;;267.25;222.00;;;;;24.84;50.67;101470.31;5061485;28;45535;-65
2021/06/04 06:46:01;;;;;;;;;55.75;41.25;;;;;24.83;50.92;101488.97;5061027;28;47632;-66
2021/06/04 06:48:26;;;;;;;;;39.00;28.00;;;;;24.79;50.86;101477.66;5048059;28;45459;-65
2021/06/04 06:50:53;;;;;;;;;16.00;14.00;;;;;24.76;50.65;101476.03;5063123;27;45461;-64
2021/06/04 06:53:19;;;;;;;;;11.33;10.00;;;;;24.75;51.15;101489.34;5054540;28;45327;-64
2021/06/04 06:55:45;;;;;;;;;8.67;8.00;;;;;24.73;51.09;101486.78;5054046;28;46301;-64
2021/06/04 06:58:11;;;;;;;;;482.00;374.80;;;;;24.72;50.62;101510.75;5047270;28;45289;-64
2021/06/04 07:00:40;;;;;;;;;77.00;59.75;;;;;24.69;51.13;101511.72;5042681;28;45445;-65
2021/06/04 07:03:06;;;;;;;;;24.67;19.33;;;;;24.69;51.09;101532.09;5048009;28;45477;-64
2021/06/04 07:05:32;;;;;;;;;8.33;8.33;;;;;24.65;51.37;101534.91;5067492;28;47326;-64
2021/06/04 07:07:58;;;;;;;;;7.67;7.67;;;;;24.63;51.05;101544.72;5040304;28;45400;-65
2021/06/04 07:10:27;;;;;;;;;62.75;44.25;;;;;24.62;51.62;101531.53;5048231;28;45508;-63
2021/06/04 07:12:53;;;;;;;;;227.75;193.75;;;;;24.60;51.55;101528.94;5062155;28;45450;-63
2021/06/04 07:15:20;;;;;;;;;341.67;265.67;;;;;24.60;51.95;101522.78;5061549;28;54309;-64
2021/06/04 07:17:46;;;;;;;;;63.50;44.25;;;;;24.61;51.62;101524.50;5054196;28;45536;-63
2021/06/04 07:20:15;;;;;;;;;28.67;18.00;;;;;24.59;51.62;101527.22;5031008;28;45483;-64
2021/06/04 07:22:40;;;;;;;;;15.00;10.00;;;;;24.60;51.83;101525.44;5062130;28;45395;-64
2021/06/04 07:25:08;;;;;;;;;8.33;6.67;;;;;24.60;51.83;101522.78;5048663;28;46330;-64
2021/06/04 07:27:33;;;;;;;;;5.33;5.33;;;;;24.60;51.73;101525.44;5040784;28;45387;-64
2021/06/04 07:29:59;;;;;;;;;4.67;4.67;;;;;24.59;52.07;101519.25;5064388;28;45358;-62
2021/06/04 07:32:24;;;;;;;;;428.25;343.00;;;;;24.61;51.85;101519.19;5061642;28;45304;-63
2021/06/04 07:34:50;;;;;;;;;66.25;49.75;;;;;24.61;51.73;101524.50;5061560;28;48164;-64
2021/06/04 07:37:15;;;;;;;;;22.33;19.00;;;;;24.61;51.48;101519.19;5060092;28;45341;-63
2021/06/04 07:39:42;;;;;;;;;10.67;9.67;;;;;24.61;51.76;101519.19;5041573;28;44901;-64
2021/06/04 07:42:10;;;;;;;;;6.00;6.00;;;;;24.62;51.60;101521.78;5041564;28;45500;-63
2021/06/04 07:44:35;;;;;;;;;6.67;6.00;;;;;24.68;51.70;101519.75;5057877;28;46207;-64
2021/06/04 07:47:01;;;;;;;;;6.00;5.33;;;;;24.73;51.80;101523.09;5043879;28;45339;-64
2021/06/04 07:49:26;;;;;;;;;6.00;5.00;;;;;24.79;51.90;101528.06;5071117;27;45361;-64
2021/06/04 07:51:55;;;;;;;;;180.00;144.33;;;;;24.87;51.58;101530.34;5050153;28;45238;-63
2021/06/04 07:54:22;;;;;;;;;56.75;43.75;;;;;24.95;51.72;101518.41;5047483;28;45547;-65
2021/06/04 07:56:48;;;;;;;;;29.00;27.00;;;;;25.03;51.33;101519.84;5061940;28;45275;-64
2021/06/04 07:59:13;;;;;;;;;329.25;263.50;;;;;25.08;51.74;101516.00;5045893;28;45370;-63
2021/06/04 08:01:40;;;;;;;;;197.50;149.75;;;;;25.15;50.85;101505.94;5050153;28;45520;-64
2021/06/04 08:04:06;;;;;;;;;79.00;62.25;;;;;25.22;51.11;101514.44;5045930;28;45453;-63
2021/06/04 08:06:32;;;;;;;;;57.25;43.50;;;;;25.29;51.13;101507.00;5049370;28;45452;-64
2021/06/04 08:08:57;;;;;;;;;35.00;26.00;;;;;25.33;51.14;101498.78;5051676;28;45341;-63
2021/06/04 08:11:27;;;;;;;;;18.67;15.67;;;;;25.39;50.67;101497.59;5044805;28;45468;-65
2021/06/04 08:13:58;;;;;;;;;8.33;8.33;;;;;25.45;50.86;101493.78;5039830;28;47163;-64
2021/06/04 08:16:24;;;;;;;;;12.00;10.67;;;;;25.51;50.66;101490.84;5059052;28;45409;-64
2021/06/04 08:18:50;;;;;;;;;8.33;8.33;;;;;25.55;50.73;101490.56;5048148;28;45314;-64
2021/06/04 08:21:22;;;;;;;;;8.00;7.00;;;;;25.60;50.61;101492.97;5057540;28;46747;-64
2021/06/04 08:23:48;;;;;;;;;6.00;6.00;;;;;25.64;50.70;101489.22;5046980;28;45573;-65
2021/06/04 08:26:18;;;;;;;;;8.00;8.00;;;;;25.69;50.58;101492.50;5059184;28;45511;-64
2021/06/04 08:28:43;;;;;;;;;7.33;7.00;;;;;25.73;50.40;101493.19;5070132;28;45339;-63
2021/06/04 08:31:10;;;;;;;;;11.00;6.00;;;;;25.77;50.42;101484.13;5053235;28;45235;-63
2021/06/04 08:33:38;;;;;;;;;8.00;7.00;;;;;25.81;50.09;101490.13;5054777;28;46541;-63
2021/06/04 08:36:06;;;;;;;;;7.00;6.00;;;;;25.85;50.37;101491.69;5053525;28;45448;-64
2021/06/04 08:38:33;;;;;;;;;6.00;6.00;;;;;25.88;50.13;101494.13;5060013;28;45420;-63
2021/06/04 08:41:06;;;;;;;;;8.00;7.00;;;;;25.93;49.79;101501.88;5043527;28;45269;-64
2021/06/04 08:43:50;;;;;;;;;5.33;5.33;;;;;25.95;49.85;101495.53;5043914;28;46637;-64
2021/06/04 08:46:29;;;;;;;;;6.33;6.33;;;;;25.98;49.68;101505.13;5050800;28;45540;-65
2021/06/04 08:49:05;;;;;;;;;9.00;9.00;;;;;25.99;49.85;101494.44;5049892;28;45297;-65
2021/06/04 08:51:48;;;;;;;;;35.33;28.67;;;;;26.01;49.49;101503.19;5052695;28;45479;-64
2021/06/04 08:54:29;;;;;;;;;177.67;139.33;;;;;26.02;49.55;101496.06;5047018;28;47656;-63
2021/06/04 08:57:32;;;;;;;;;102.25;87.75;;;;;26.02;49.41;101491.56;5050051;28;45491;-64
2021/06/04 08:59:57;;;;;;;;;64.25;45.00;;;;;26.02;49.59;101494.25;5056964;28;45366;-64
2021/06/04 09:02:35;;;;;;;;;48.67;33.33;;;;;26.03;49.17;101500.44;5057853;28;45377;-64
2021/06/04 09:05:08;;;;;;;;;22.00;19.67;;;;;26.03;49.22;101498.63;5052064;28;46254;-64
2021/06/04 09:07:37;;;;;;;;;17.33;15.33;;;;;26.04;49.00;101494.16;5046889;28;45492;-64
2021/06/04 09:10:36;;;;;;;;;12.33;11.00;;;;;26.03;49.36;101501.28;5032406;28;45397;-65
2021/06/04 09:13:34;;;;;;;;;9.67;8.33;;;;;26.06;49.06;101499.38;5040932;28;45516;-65
2021/06/04 09:16:06;;;;;;;;;11.00;10.00;;;;;26.06;48.86;101505.59;5026681;28;45533;-65
2021/06/04 09:18:59;;;;;;;;;9.33;7.67;;;;;26.06;49.41;101502.06;5053790;28;45240;-65
2021/06/04 09:21:29;;;;;;;;;23.00;20.00;;;;;26.06;48.97;101499.38;5020710;28;45501;-64
2021/06/04 09:23:59;;;;;;;;;25.67;22.33;;;;;26.07;49.09;101506.44;5051893;28;45583;-65
2021/06/04 09:26:25;;;;;;;;;27.67;20.33;;;;;26.06;49.10;101510.91;5052349;28;45386;-65
2021/06/04 09:29:03;;;;;;;;;22.33;16.67;;;;;26.07;49.38;101509.97;5050759;28;45398;-64
2021/06/04 09:31:42;;;;;;;;;28.00;19.33;;;;;26.08;49.09;101510.81;5051159;28;45390;-64
2021/06/04 09:34:17;;;;;;;;;14.67;12.00;;;;;26.07;49.19;101507.31;5062656;28;45338;-65
2021/06/04 09:36:48;;;;;;;;;15.33;10.33;;;;;26.08;49.27;101513.47;5061378;28;47179;-64
2021/06/04 09:39:33;;;;;;;;;12.00;9.00;;;;;26.08;48.97;101514.34;5060560;28;45427;-66
2021/06/04 09:42:20;;;;;;;;;11.00;9.00;;;;;26.08;48.81;101513.47;5045359;28;45471;-65
2021/06/04 09:44:54;;;;;;;;;9.00;7.00;;;;;26.08;48.69;101505.50;5056890;28;45373;-65
2021/06/04 09:47:35;;;;;;;;;8.67;8.67;;;;;26.09;49.34;101515.19;5054559;28;46202;-63
2021/06/04 09:50:15;;;;;;;;;7.67;7.00;;;;;26.08;48.90;101519.66;5060250;28;46519;-63
2021/06/04 09:52:41;;;;;;;;;7.00;6.33;;;;;26.09;48.85;101510.72;5054465;28;45390;-64
2021/06/04 09:55:09;;;;;;;;;12.00;6.67;;;;;26.10;48.93;101527.53;5058412;28;45536;-65
2021/06/04 09:57:34;;;;;;;;;10.00;8.33;;;;;26.09;48.80;101526.66;5058231;28;46985;-65
2021/06/04 10:00:13;;;;;;;;;10.67;8.67;;;;;26.10;48.69;101530.19;5043234;28;45277;-66
2021/06/04 10:02:39;;;;;;;;;14.00;13.00;;;;;26.09;48.51;101521.34;5043117;28;45389;-63
2021/06/04 10:05:27;;;;;;;;;15.00;12.67;;;;;26.10;48.70;101530.19;5059489;28;45545;-63
2021/06/04 10:08:12;;;;;;;;;11.67;9.67;;;;;26.09;48.84;101529.31;5061286;28;46385;-64
2021/06/04 10:10:38;;;;;;;;;9.00;7.67;;;;;26.09;49.21;101525.81;5061422;28;45513;-64
2021/06/04 10:13:11;;;;;;;;;10.33;10.00;;;;;26.09;48.85;101523.16;5058809;28;45254;-64
2021/06/04 10:15:47;;;;;;;;;9.00;8.00;;;;;26.10;49.02;101530.19;5056239;28;45389;-64
2021/06/04 10:18:35;;;;;;;;;7.00;7.00;;;;;26.10;48.79;101528.38;5055386;28;47977;-65
2021/06/04 10:21:31;;;;;;;;;5.00;5.00;;;;;26.10;48.89;101522.22;5052742;28;45510;-64
2021/06/04 10:23:57;;;;;;;;;13.67;13.00;;;;;26.11;48.69;101524.81;5060621;28;45304;-65
2021/06/04 10:26:28;;;;;;;;;13.33;11.00;;;;;26.12;48.37;101531.00;5048085;28;45621;-65
2021/06/04 10:29:03;;;;;;;;;16.67;12.33;;;;;26.12;48.80;101528.34;5047814;28;45530;-64
2021/06/04 10:31:37;;;;;;;;;16.67;13.33;;;;;26.12;48.61;101531.84;5044877;28;45372;-65
2021/06/04 10:34:05;;;;;;;;;18.67;17.00;;;;;26.12;48.84;101531.84;5061103;28;45489;-66
2021/06/04 10:36:35;;;;;;;;;19.00;18.67;;;;;26.12;49.07;101531.84;5061479;28;45532;-64
2021/06/04 10:39:07;;;;;;;;;24.67;22.00;;;;;26.12;49.17;101539.84;5047930;28;47134;-63
2021/06/04 10:41:59;;;;;;;;;16.00;16.00;;;;;26.13;48.84;101528.25;5056687;28;45342;-65
2021/06/04 10:44:27;;;;;;;;;12.00;12.00;;;;;26.12;48.78;101534.50;5049946;28;45208;-65
2021/06/04 10:47:19;;;;;;;;;12.67;12.67;;;;;26.11;49.02;101535.47;5062536;28;45361;-64
2021/06/04 10:49:49;;;;;;;;;9.00;9.00;;;;;26.11;49.08;101535.47;5060491;28;46228;-65
2021/06/04 10:52:33;;;;;;;;;8.33;8.33;;;;;26.11;48.99;101540.78;5062288;28;45452;-65
2021/06/04 10:55:07;;;;;;;;;9.33;9.33;;;;;26.10;48.70;101541.69;5062532;28;45295;-64
2021/06/04 10:57:47;;;;;;;;;11.00;9.67;;;;;26.09;49.01;101537.31;5062265;28;45386;-65
2021/06/04 11:00:27;;;;;;;;;10.00;10.00;;;;;26.09;48.75;101536.47;5062019;28;45394;-66
2021/06/04 11:03:16;;;;;;;;;9.00;9.00;;;;;26.08;49.02;101540.06;5062970;28;45250;-65
2021/06/04 11:05:57;;;;;;;;;8.00;8.00;;;;;26.08;49.36;101540.94;5055629;28;45330;-62
2021/06/04 11:08:41;;;;;;;;;10.00;9.33;;;;;26.08;48.98;101540.06;5062648;28;45448;-65
2021/06/04 11:11:31;;;;;;;;;9.00;8.00;;;;;26.08;49.29;101532.97;5060115;28;46559;-66
2021/06/04 11:14:02;;;;;;;;;9.00;9.00;;;;;26.08;48.96;101530.31;5479781;22;46379;-65
2021/06/04 11:16:50;;;;;;;;;7.67;7.67;;;;;26.09;49.04;101532.00;5083781;27;45446;-64
2021/06/04 11:19:24;;;;;;;;;53.25;41.50;;;;;26.09;49.35;101532.00;5081016;28;45306;-63
2021/06/04 11:21:53;;;;;;;;;26.67;24.67;;;;;26.10;49.64;101528.38;5064360;28;46020;-64
2021/06/04 11:24:27;;;;;;;;;27.67;21.33;;;;;26.10;49.39;101527.53;5063656;28;45425;-63
2021/06/04 11:26:54;;;;;;;;;13.67;12.00;;;;;26.11;49.66;101521.31;5082171;28;45292;-64
2021/06/04 11:29:52;;;;;;;;;;;;;;;;;;;;;
2021/06/04 11:32:27;;;;;;;;;9.00;9.00;;;;;26.12;50.29;101517.72;5064846;28;74199;-63